Volcan De Tauce — EAGW — position and weather

sailwx.info

Track history (hours):
 
Tides and Currents Weather Stations Pressure Air Temp Water Temp Dewpoint Dewpoint Depression Visibility Wind Speed Wind Dir Waves Ship Positions

Volcan De Tauce

Last reported at 2016-Feb-05 13:05 UTC. Time now 2016-Feb-07 23:52 UTC.
Position N 28°06' W 014°08'.

Length 120 m; draft 4.8 m.

Type: Passenger vessel. MMSI: 224761000.

Date/timePositionNaut miles runAvg speedWind from/ knotsBaromVisibWave heightAir tempDewpointWater temp
2016-Feb-05 13:05N 28°06' W 014°08'1 0.0
2016-Feb-04 04:33N 28°07' W 014°07'1514.7
2016-Feb-04 03:31N 28°01' W 014°23'1515.6
2016-Feb-04 02:31N 28°03' W 014°41'1515.2
2016-Feb-04 01:34N 28°04' W 014°57'1515.5
2016-Feb-04 00:33N 28°06' W 015°15'9 9.0
2016-Feb-03 23:33N 28°08' W 015°25'0 0.0
2016-Feb-03 22:33N 28°08' W 015°25'0 0.0
2016-Feb-03 21:33N 28°08' W 015°25'0 0.0
2016-Feb-03 20:33N 28°08' W 015°25'0 0.0
2016-Feb-03 19:33N 28°08' W 015°25'0 0.0
2016-Feb-03 18:33N 28°08' W 015°25'0 0.0
2016-Feb-03 17:33N 28°08' W 015°25'1010.1
2016-Feb-03 16:33N 28°06' W 015°14'1616.2
2016-Feb-03 15:33N 28°05' W 014°55'1616.1
2016-Feb-03 14:33N 28°02' W 014°37'1616.4
2016-Feb-03 13:33N 28°02' W 014°19'3316.5
2016-Feb-03 11:31N 28°23' W 013°50'17 2.4
2016-Feb-03 04:33N 28°10' W 014°01'1615.6
2016-Feb-03 03:33N 28°03' W 014°17'1515.4
2016-Feb-03 02:33N 28°02' W 014°34'1515.5
2016-Feb-03 01:33N 28°04' W 014°51'1615.8
2016-Feb-03 00:33N 28°05' W 015°09'1414.0
2016-Feb-02 23:33N 28°08' W 015°25'0 0.0
2016-Feb-02 22:33N 28°08' W 015°25'0 0.0
2016-Feb-02 21:33N 28°08' W 015°25'0 0.0
2016-Feb-02 20:33N 28°08' W 015°25'0 0.0
2016-Feb-02 19:33N 28°08' W 015°25'0 0.0
2016-Feb-02 18:33N 28°08' W 015°25'0 0.0
2016-Feb-02 17:33N 28°08' W 015°25'1212.4
2016-Feb-02 16:33N 28°06' W 015°11'1615.9
2016-Feb-02 15:33N 28°04' W 014°53'1616.3
2016-Feb-02 14:33N 28°02' W 014°35'1616.2
2016-Feb-02 13:33N 28°03' W 014°16'1716.9
2016-Feb-02 12:33N 28°11' W 013°60'6 0.8
2016-Feb-02 05:14N 28°14' W 013°54'1115.7
2016-Feb-02 04:33N 28°08' W 014°05'1615.6
2016-Feb-02 03:33N 28°01' W 014°20'1715.8
2016-Feb-02 02:29N 28°03' W 014°39'1415.4
2016-Feb-02 01:33N 28°04' W 014°55'1615.8
2016-Feb-02 00:33N 28°06' W 015°13'1110.6
2016-Feb-01 23:33N 28°08' W 015°25'0 0.0
2016-Feb-01 22:33N 28°08' W 015°25'0 0.0
2016-Feb-01 21:33N 28°08' W 015°25'0 0.0
2016-Feb-01 20:33N 28°08' W 015°25'0 0.0
2016-Feb-01 19:33N 28°08' W 015°25'0 0.0
2016-Feb-01 18:33N 28°08' W 015°25'0 0.0
2016-Feb-01 17:33N 28°08' W 015°25'0 0.0
2016-Feb-01 16:33N 28°08' W 015°25'0 0.0
2016-Feb-01 15:33N 28°08' W 015°25'0 0.0
2016-Feb-01 14:33N 28°08' W 015°25'0 0.0
2016-Feb-01 13:33N 28°08' W 015°25'0 0.0
2016-Feb-01 12:33N 28°08' W 015°25'0 0.0
2016-Feb-01 11:34N 28°08' W 015°25'0 0.0
2016-Feb-01 10:33N 28°08' W 015°25'0 0.0
2016-Feb-01 09:33N 28°08' W 015°25'0 0.0
2016-Feb-01 08:33N 28°08' W 015°25'0 0.0
2016-Feb-01 07:33N 28°08' W 015°25'0 0.0
2016-Feb-01 06:33N 28°08' W 015°25'0 0.0
2016-Feb-01 05:33N 28°08' W 015°25'0 0.0
2016-Feb-01 04:33N 28°08' W 015°25'0 0.0
2016-Feb-01 03:33N 28°08' W 015°25'0 0.0
2016-Feb-01 02:33N 28°08' W 015°25'0 0.0
2016-Feb-01 01:33N 28°08' W 015°25'0 0.0
2016-Feb-01 00:33N 28°08' W 015°25'0 0.0
2016-Jan-31 23:34N 28°08' W 015°25'0 0.0
2016-Jan-31 22:33N 28°08' W 015°25'0 0.0
2016-Jan-31 21:33N 28°08' W 015°25'0 0.0
2016-Jan-31 20:34N 28°08' W 015°25'0 0.0
2016-Jan-31 19:34N 28°08' W 015°25'0 0.0
2016-Jan-31 18:33N 28°08' W 015°25'0 0.0
2016-Jan-31 17:33N 28°08' W 015°25'0 0.0
2016-Jan-31 16:33N 28°08' W 015°25'0 0.0
2016-Jan-31 15:33N 28°08' W 015°25'0 0.0
2016-Jan-31 14:33N 28°08' W 015°25'0 0.0
2016-Jan-31 13:33N 28°08' W 015°25'0 0.0
2016-Jan-31 12:33N 28°08' W 015°25'0 0.0
2016-Jan-31 11:33N 28°08' W 015°25'0 0.0
2016-Jan-31 10:33N 28°08' W 015°25'0 0.0
2016-Jan-31 09:33N 28°08' W 015°25'0 0.0
2016-Jan-31 08:33N 28°08' W 015°25'0 0.0
2016-Jan-31 07:33N 28°08' W 015°25'0 0.0
2016-Jan-31 06:33N 28°08' W 015°25'0 0.0
2016-Jan-31 05:33N 28°08' W 015°25'0 0.0
2016-Jan-31 04:33N 28°08' W 015°25'0 0.0
2016-Jan-31 03:33N 28°08' W 015°25'0 0.0
2016-Jan-31 02:33N 28°08' W 015°25'0 0.0
2016-Jan-31 01:33N 28°08' W 015°25'0 0.0
2016-Jan-31 00:33N 28°08' W 015°25'0 0.0
2016-Jan-30 23:33N 28°08' W 015°25'0 0.0
2016-Jan-30 22:33N 28°08' W 015°25'0 0.0
2016-Jan-30 21:33N 28°08' W 015°25'0 0.0
2016-Jan-30 20:33N 28°08' W 015°25'0 0.0
2016-Jan-30 19:33N 28°08' W 015°25'0 0.0
2016-Jan-30 18:33N 28°08' W 015°25'1 0.5
2016-Jan-30 17:33N 28°08' W 015°25'1514.6
2016-Jan-30 16:33N 28°05' W 015°08'1615.8
2016-Jan-30 15:33N 28°04' W 014°50'1615.9
2016-Jan-30 14:33N 28°02' W 014°32'1716.4
2016-Jan-30 13:32N 28°04' W 014°14'10 1.3
2016-Jan-30 05:33N 28°09' W 014°03'2914.4
2016-Jan-30 03:32N 28°02' W 014°35'1414.6
2016-Jan-30 02:33N 28°04' W 014°51'1414.5
2016-Jan-30 01:33N 28°05' W 015°08'1414.4
2016-Jan-30 00:33N 28°07' W 015°24'1 1.4
2016-Jan-29 23:33N 28°08' W 015°25'0 0.0
2016-Jan-29 22:33N 28°08' W 015°25'0 0.0
2016-Jan-29 21:33N 28°08' W 015°25'0 0.0
2016-Jan-29 20:33N 28°08' W 015°25'0 0.0
2016-Jan-29 19:33N 28°08' W 015°25'0 0.0
2016-Jan-29 18:33N 28°08' W 015°25'0 0.0
2016-Jan-29 17:34N 28°08' W 015°25'1212.5
2016-Jan-29 16:33N 28°06' W 015°11'1615.8
2016-Jan-29 15:33N 28°04' W 014°53'1615.8
2016-Jan-29 14:33N 28°02' W 014°35'1916.3
2016-Jan-29 13:25N 28°04' W 014°14'7 0.8
2016-Jan-29 04:33N 28°07' W 014°07'2914.7
2016-Jan-29 02:34N 28°03' W 014°40'1515.2
2016-Jan-29 01:33N 28°04' W 014°57'1515.3
2016-Jan-29 00:34N 28°06' W 015°14'10 9.7
2016-Jan-28 23:33N 28°08' W 015°25'0 0.0
2016-Jan-28 22:33N 28°08' W 015°25'0 0.0
2016-Jan-28 21:33N 28°08' W 015°25'0 0.0
2016-Jan-28 20:33N 28°08' W 015°25'0 0.0
2016-Jan-28 19:33N 28°08' W 015°25'0 0.0
2016-Jan-28 18:33N 28°08' W 015°25'0 0.0
2016-Jan-28 17:33N 28°08' W 015°25'1010.4
2016-Jan-28 16:34N 28°05' W 015°14'1616.2
2016-Jan-28 15:34N 28°04' W 014°55'1616.2
2016-Jan-28 14:33N 28°03' W 014°37'2016.4
2016-Jan-28 13:18N 28°04' W 014°14'32 4.5
2016-Jan-28 06:16N 28°27' W 013°50'2413.7
2016-Jan-28 04:32N 28°08' W 014°05'1515.4
2016-Jan-28 03:33N 28°01' W 014°21'1615.3
2016-Jan-28 02:31N 28°03' W 014°38'1515.4
2016-Jan-28 01:33N 28°04' W 014°55'1615.5
2016-Jan-28 00:33N 28°06' W 015°13'1111.1
2016-Jan-27 23:33N 28°08' W 015°25'0 0.0
2016-Jan-27 22:33N 28°08' W 015°25'0 0.0
2016-Jan-27 21:33N 28°08' W 015°25'0 0.0
2016-Jan-27 20:33N 28°08' W 015°25'0 0.0
2016-Jan-27 19:33N 28°08' W 015°25'0 0.0
2016-Jan-27 18:33N 28°08' W 015°25'0 0.0
2016-Jan-27 17:33N 28°08' W 015°25'1212.3
2016-Jan-27 16:33N 28°06' W 015°11'1616.0
2016-Jan-27 15:33N 28°04' W 014°53'1615.9
2016-Jan-27 14:33N 28°02' W 014°35'1616.2
2016-Jan-27 13:33N 28°02' W 014°17'23 2.8
2016-Jan-27 05:12N 28°14' W 013°54'1015.2
2016-Jan-27 04:34N 28°09' W 014°03'1515.5
2016-Jan-27 03:34N 28°02' W 014°19'1514.8
2016-Jan-27 02:33N 28°02' W 014°36'1515.5
2016-Jan-27 01:33N 28°04' W 014°53'1515.4
2016-Jan-27 00:33N 28°05' W 015°10'1310.9
2016-Jan-26 23:22N 28°08' W 015°25'0 0.0
2016-Jan-26 22:33N 28°08' W 015°25'0 0.0
2016-Jan-26 21:33N 28°08' W 015°25'0 0.0
2016-Jan-26 20:33N 28°08' W 015°25'0 0.0
2016-Jan-26 19:33N 28°08' W 015°25'0 0.0
2016-Jan-26 18:33N 28°08' W 015°25'2 1.3
2016-Jan-26 17:25N 28°07' W 015°24'1415.9
2016-Jan-26 16:33N 28°05' W 015°08'1615.9
2016-Jan-26 15:33N 28°04' W 014°51'1616.1
2016-Jan-26 14:33N 28°02' W 014°32'2315.8
2016-Jan-26 13:07N 28°07' W 014°07'  
Track history (hours):
 
Tides and Currents Weather Stations Pressure Air Temp Water Temp Dewpoint Dewpoint Depression Visibility Wind Speed Wind Dir Waves Ship Positions

Volcan De Tauce

Last reported at 2016-Feb-05 13:05 UTC. Time now 2016-Feb-07 23:52 UTC.
Position N 28°06' W 014°08'.

Length 120 m; draft 4.8 m.

Type: Passenger vessel. MMSI: 224761000.

Date/timePositionNaut miles runAvg speedWind from/ knotsBaromVisibWave heightAir tempDewpointWater temp
2016-Feb-05 13:05N 28°06' W 014°08'1 0.0
2016-Feb-04 04:33N 28°07' W 014°07'1514.7
2016-Feb-04 03:31N 28°01' W 014°23'1515.6
2016-Feb-04 02:31N 28°03' W 014°41'1515.2
2016-Feb-04 01:34N 28°04' W 014°57'1515.5
2016-Feb-04 00:33N 28°06' W 015°15'9 9.0
2016-Feb-03 23:33N 28°08' W 015°25'0 0.0
2016-Feb-03 22:33N 28°08' W 015°25'0 0.0
2016-Feb-03 21:33N 28°08' W 015°25'0 0.0
2016-Feb-03 20:33N 28°08' W 015°25'0 0.0
2016-Feb-03 19:33N 28°08' W 015°25'0 0.0
2016-Feb-03 18:33N 28°08' W 015°25'0 0.0
2016-Feb-03 17:33N 28°08' W 015°25'1010.1
2016-Feb-03 16:33N 28°06' W 015°14'1616.2
2016-Feb-03 15:33N 28°05' W 014°55'1616.1
2016-Feb-03 14:33N 28°02' W 014°37'1616.4
2016-Feb-03 13:33N 28°02' W 014°19'3316.5
2016-Feb-03 11:31N 28°23' W 013°50'17 2.4
2016-Feb-03 04:33N 28°10' W 014°01'1615.6
2016-Feb-03 03:33N 28°03' W 014°17'1515.4
2016-Feb-03 02:33N 28°02' W 014°34'1515.5
2016-Feb-03 01:33N 28°04' W 014°51'1615.8
2016-Feb-03 00:33N 28°05' W 015°09'1414.0
2016-Feb-02 23:33N 28°08' W 015°25'0 0.0
2016-Feb-02 22:33N 28°08' W 015°25'0 0.0
2016-Feb-02 21:33N 28°08' W 015°25'0 0.0
2016-Feb-02 20:33N 28°08' W 015°25'0 0.0
2016-Feb-02 19:33N 28°08' W 015°25'0 0.0
2016-Feb-02 18:33N 28°08' W 015°25'0 0.0
2016-Feb-02 17:33N 28°08' W 015°25'1212.4
2016-Feb-02 16:33N 28°06' W 015°11'1615.9
2016-Feb-02 15:33N 28°04' W 014°53'1616.3
2016-Feb-02 14:33N 28°02' W 014°35'1616.2
2016-Feb-02 13:33N 28°03' W 014°16'1716.9
2016-Feb-02 12:33N 28°11' W 013°60'6 0.8
2016-Feb-02 05:14N 28°14' W 013°54'1115.7
2016-Feb-02 04:33N 28°08' W 014°05'1615.6
2016-Feb-02 03:33N 28°01' W 014°20'1715.8
2016-Feb-02 02:29N 28°03' W 014°39'1415.4
2016-Feb-02 01:33N 28°04' W 014°55'1615.8
2016-Feb-02 00:33N 28°06' W 015°13'1110.6
2016-Feb-01 23:33N 28°08' W 015°25'0 0.0
2016-Feb-01 22:33N 28°08' W 015°25'0 0.0
2016-Feb-01 21:33N 28°08' W 015°25'0 0.0
2016-Feb-01 20:33N 28°08' W 015°25'0 0.0
2016-Feb-01 19:33N 28°08' W 015°25'0 0.0
2016-Feb-01 18:33N 28°08' W 015°25'0 0.0
2016-Feb-01 17:33N 28°08' W 015°25'0 0.0
2016-Feb-01 16:33N 28°08' W 015°25'0 0.0
2016-Feb-01 15:33N 28°08' W 015°25'0 0.0
2016-Feb-01 14:33N 28°08' W 015°25'0 0.0
2016-Feb-01 13:33N 28°08' W 015°25'0 0.0
2016-Feb-01 12:33N 28°08' W 015°25'0 0.0
2016-Feb-01 11:34N 28°08' W 015°25'0 0.0
2016-Feb-01 10:33N 28°08' W 015°25'0 0.0
2016-Feb-01 09:33N 28°08' W 015°25'0 0.0
2016-Feb-01 08:33N 28°08' W 015°25'0 0.0
2016-Feb-01 07:33N 28°08' W 015°25'0 0.0
2016-Feb-01 06:33N 28°08' W 015°25'0 0.0
2016-Feb-01 05:33N 28°08' W 015°25'0 0.0
2016-Feb-01 04:33N 28°08' W 015°25'0 0.0
2016-Feb-01 03:33N 28°08' W 015°25'0 0.0
2016-Feb-01 02:33N 28°08' W 015°25'0 0.0
2016-Feb-01 01:33N 28°08' W 015°25'0 0.0
2016-Feb-01 00:33N 28°08' W 015°25'0 0.0
2016-Jan-31 23:34N 28°08' W 015°25'0 0.0
2016-Jan-31 22:33N 28°08' W 015°25'0 0.0
2016-Jan-31 21:33N 28°08' W 015°25'0 0.0
2016-Jan-31 20:34N 28°08' W 015°25'0 0.0
2016-Jan-31 19:34N 28°08' W 015°25'0 0.0
2016-Jan-31 18:33N 28°08' W 015°25'0 0.0
2016-Jan-31 17:33N 28°08' W 015°25'0 0.0
2016-Jan-31 16:33N 28°08' W 015°25'0 0.0
2016-Jan-31 15:33N 28°08' W 015°25'0 0.0
2016-Jan-31 14:33N 28°08' W 015°25'0 0.0
2016-Jan-31 13:33N 28°08' W 015°25'0 0.0
2016-Jan-31 12:33N 28°08' W 015°25'0 0.0
2016-Jan-31 11:33N 28°08' W 015°25'0 0.0
2016-Jan-31 10:33N 28°08' W 015°25'0 0.0
2016-Jan-31 09:33N 28°08' W 015°25'0 0.0
2016-Jan-31 08:33N 28°08' W 015°25'0 0.0
2016-Jan-31 07:33N 28°08' W 015°25'0 0.0
2016-Jan-31 06:33N 28°08' W 015°25'0 0.0
2016-Jan-31 05:33N 28°08' W 015°25'0 0.0
2016-Jan-31 04:33N 28°08' W 015°25'0 0.0
2016-Jan-31 03:33N 28°08' W 015°25'0 0.0
2016-Jan-31 02:33N 28°08' W 015°25'0 0.0
2016-Jan-31 01:33N 28°08' W 015°25'0 0.0
2016-Jan-31 00:33N 28°08' W 015°25'0 0.0
2016-Jan-30 23:33N 28°08' W 015°25'0 0.0
2016-Jan-30 22:33N 28°08' W 015°25'0 0.0
2016-Jan-30 21:33N 28°08' W 015°25'0 0.0
2016-Jan-30 20:33N 28°08' W 015°25'0 0.0
2016-Jan-30 19:33N 28°08' W 015°25'0 0.0
2016-Jan-30 18:33N 28°08' W 015°25'1 0.5
2016-Jan-30 17:33N 28°08' W 015°25'1514.6
2016-Jan-30 16:33N 28°05' W 015°08'1615.8
2016-Jan-30 15:33N 28°04' W 014°50'1615.9
2016-Jan-30 14:33N 28°02' W 014°32'1716.4
2016-Jan-30 13:32N 28°04' W 014°14'10 1.3
2016-Jan-30 05:33N 28°09' W 014°03'2914.4
2016-Jan-30 03:32N 28°02' W 014°35'1414.6
2016-Jan-30 02:33N 28°04' W 014°51'1414.5
2016-Jan-30 01:33N 28°05' W 015°08'1414.4
2016-Jan-30 00:33N 28°07' W 015°24'1 1.4
2016-Jan-29 23:33N 28°08' W 015°25'0 0.0
2016-Jan-29 22:33N 28°08' W 015°25'0 0.0
2016-Jan-29 21:33N 28°08' W 015°25'0 0.0
2016-Jan-29 20:33N 28°08' W 015°25'0 0.0
2016-Jan-29 19:33N 28°08' W 015°25'0 0.0
2016-Jan-29 18:33N 28°08' W 015°25'0 0.0
2016-Jan-29 17:34N 28°08' W 015°25'1212.5
2016-Jan-29 16:33N 28°06' W 015°11'1615.8
2016-Jan-29 15:33N 28°04' W 014°53'1615.8
2016-Jan-29 14:33N 28°02' W 014°35'1916.3
2016-Jan-29 13:25N 28°04' W 014°14'7 0.8
2016-Jan-29 04:33N 28°07' W 014°07'2914.7
2016-Jan-29 02:34N 28°03' W 014°40'1515.2
2016-Jan-29 01:33N 28°04' W 014°57'1515.3
2016-Jan-29 00:34N 28°06' W 015°14'10 9.7
2016-Jan-28 23:33N 28°08' W 015°25'0 0.0
2016-Jan-28 22:33N 28°08' W 015°25'0 0.0
2016-Jan-28 21:33N 28°08' W 015°25'0 0.0
2016-Jan-28 20:33N 28°08' W 015°25'0 0.0
2016-Jan-28 19:33N 28°08' W 015°25'0 0.0
2016-Jan-28 18:33N 28°08' W 015°25'0 0.0
2016-Jan-28 17:33N 28°08' W 015°25'1010.4
2016-Jan-28 16:34N 28°05' W 015°14'1616.2
2016-Jan-28 15:34N 28°04' W 014°55'1616.2
2016-Jan-28 14:33N 28°03' W 014°37'2016.4
2016-Jan-28 13:18N 28°04' W 014°14'32 4.5
2016-Jan-28 06:16N 28°27' W 013°50'2413.7
2016-Jan-28 04:32N 28°08' W 014°05'1515.4
2016-Jan-28 03:33N 28°01' W 014°21'1615.3
2016-Jan-28 02:31N 28°03' W 014°38'1515.4
2016-Jan-28 01:33N 28°04' W 014°55'1615.5
2016-Jan-28 00:33N 28°06' W 015°13'1111.1
2016-Jan-27 23:33N 28°08' W 015°25'0 0.0
2016-Jan-27 22:33N 28°08' W 015°25'0 0.0
2016-Jan-27 21:33N 28°08' W 015°25'0 0.0
2016-Jan-27 20:33N 28°08' W 015°25'0 0.0
2016-Jan-27 19:33N 28°08' W 015°25'0 0.0
2016-Jan-27 18:33N 28°08' W 015°25'0 0.0
2016-Jan-27 17:33N 28°08' W 015°25'1212.3
2016-Jan-27 16:33N 28°06' W 015°11'1616.0
2016-Jan-27 15:33N 28°04' W 014°53'1615.9
2016-Jan-27 14:33N 28°02' W 014°35'1616.2
2016-Jan-27 13:33N 28°02' W 014°17'23 2.8
2016-Jan-27 05:12N 28°14' W 013°54'1015.2
2016-Jan-27 04:34N 28°09' W 014°03'1515.5
2016-Jan-27 03:34N 28°02' W 014°19'1514.8
2016-Jan-27 02:33N 28°02' W 014°36'1515.5
2016-Jan-27 01:33N 28°04' W 014°53'1515.4
2016-Jan-27 00:33N 28°05' W 015°10'1310.9
2016-Jan-26 23:22N 28°08' W 015°25'0 0.0
2016-Jan-26 22:33N 28°08' W 015°25'0 0.0
2016-Jan-26 21:33N 28°08' W 015°25'0 0.0
2016-Jan-26 20:33N 28°08' W 015°25'0 0.0
2016-Jan-26 19:33N 28°08' W 015°25'0 0.0
2016-Jan-26 18:33N 28°08' W 015°25'2 1.3
2016-Jan-26 17:25N 28°07' W 015°24'1415.9
2016-Jan-26 16:33N 28°05' W 015°08'1615.9
2016-Jan-26 15:33N 28°04' W 014°51'1616.1
2016-Jan-26 14:33N 28°02' W 014°32'2315.8
2016-Jan-26 13:07N 28°07' W 014°07'  

Dump ship's entire track history